Time;durP1;ratioP1;P1;durP2;ratioP2;P2;SDS_P1;SDS_P2;PMS_P1;PMS_P2;Temp;Humidity;BMP_temperature;BMP_pressure;BME280_temperature;BME280_humidity;BME280_pressure;Samples;Min_cycle;Max_cycle;Signal;HPM_P1;HPM_P2
2023/04/12 00:00:10;;;;;;;4.13;2.30;;;;;;;11.73;57.10;98175.84;5044808;27;102900;-56
2023/04/12 00:02:40;;;;;;;7.00;2.87;;;;;;;11.66;57.19;98183.41;5050551;27;102899;-57
2023/04/12 00:05:10;;;;;;;5.60;2.80;;;;;;;11.53;57.72;98182.78;5049772;27;103336;-56
2023/04/12 00:07:41;;;;;;;2.90;2.57;;;;;;;11.48;57.61;98183.16;5029043;27;103117;-56
2023/04/12 00:10:11;;;;;;;6.47;3.07;;;;;;;11.35;58.39;98169.28;5056228;27;102665;-56
2023/04/12 00:12:40;;;;;;;5.20;2.70;;;;;;;11.43;58.24;98176.56;5052383;27;104128;-56
2023/04/12 00:15:11;;;;;;;3.90;2.67;;;;;;;11.55;58.01;98172.91;5050558;27;103241;-57
2023/04/12 00:17:39;;;;;;;3.53;2.63;;;;;;;11.41;59.12;98171.44;5050222;27;104409;-56
2023/04/12 00:20:11;;;;;;;4.90;2.73;;;;;;;11.49;59.21;98168.13;5051588;27;102916;-57
2023/04/12 00:22:40;;;;;;;3.80;2.20;;;;;;;11.55;58.39;98164.97;5030679;27;104067;-56
2023/04/12 00:25:08;;;;;;;4.60;2.27;;;;;;;11.48;58.15;98158.53;5049603;27;103623;-57
2023/04/12 00:27:37;;;;;;;3.47;1.70;;;;;;;11.24;58.32;98158.78;5050636;27;103165;-56
2023/04/12 00:30:08;;;;;;;4.50;1.43;;;;;;;11.36;58.50;98159.56;5029357;27;102864;-57
2023/04/12 00:32:36;;;;;;;3.03;1.50;;;;;;;11.51;58.31;98155.59;5050376;27;103322;-56
2023/04/12 00:35:05;;;;;;;4.07;1.60;;;;;;;11.57;58.48;98157.75;5052864;27;104041;-56
2023/04/12 00:37:35;;;;;;;3.10;1.60;;;;;;;11.51;59.28;98160.91;5048553;27;103215;-56
2023/04/12 00:40:03;;;;;;;2.93;1.63;;;;;;;11.43;60.03;98152.78;5049708;27;103865;-56
2023/04/12 00:42:31;;;;;;;3.00;1.73;;;;;;;11.46;61.36;98149.88;5028458;27;104313;-57
2023/04/12 00:45:01;;;;;;;2.70;1.60;;;;;;;11.23;62.66;98146.50;5048745;27;103326;-56
2023/04/12 00:47:29;;;;;;;3.20;1.63;;;;;;;10.74;65.88;98144.44;5051611;27;103355;-56
2023/04/12 00:49:59;;;;;;;3.07;1.63;;;;;;;10.77;66.80;98152.13;5050755;27;103109;-57
2023/04/12 00:52:33;;;;;;;3.93;1.80;;;;;;;10.72;69.05;98143.72;5029085;27;102793;-56
2023/04/12 00:55:03;;;;;;;5.33;1.97;;;;;;;10.63;70.01;98139.19;5048883;27;103265;-56
2023/04/12 00:57:35;;;;;;;3.13;2.07;;;;;;;10.48;71.27;98140.44;5047698;27;103290;-56
2023/04/12 01:00:07;;;;;;;3.70;1.80;;;;;;;10.34;71.93;98136.25;5047138;27;102730;-56
2023/04/12 01:02:37;;;;;;;5.33;1.70;;;;;;;10.43;72.08;98137.31;5029804;27;102858;-56
2023/04/12 01:05:07;;;;;;;2.20;1.97;;;;;;;10.28;74.32;98133.25;5047140;27;103372;-56
2023/04/12 01:07:45;;;;;;;4.10;1.77;;;;;;;10.50;74.24;98137.69;5032768;27;103400;-56
2023/04/12 01:10:22;;;;;;;4.17;1.97;;;;;;;10.62;74.80;98126.09;5023205;27;102873;-56
2023/04/12 01:13:13;;;;;;;4.07;2.07;;;;;;;10.57;74.65;98126.50;5049223;27;102721;-56
2023/04/12 01:15:51;;;;;;;2.33;1.53;;;;;;;10.55;75.35;98125.78;5046898;27;103258;-56
2023/04/12 01:18:24;;;;;;;9.60;4.40;;;;;;;10.47;75.53;98128.19;5027120;27;103378;-57
2023/04/12 01:20:57;;;;;;;5.17;2.40;;;;;;;10.42;76.76;98119.78;5028206;27;102851;-57
2023/04/12 01:23:43;;;;;;;4.63;2.20;;;;;;;10.26;77.58;98119.34;5040378;27;102654;-56
2023/04/12 01:26:31;;;;;;;4.47;1.77;;;;;;;10.33;77.78;98108.16;5035492;27;104194;-56
2023/04/12 01:29:08;;;;;;;3.63;1.70;;;;;;;10.81;74.74;98105.13;5034157;27;103321;-56
2023/04/12 01:31:39;;;;;;;4.97;1.67;;;;;;;10.83;74.61;98103.22;5033798;27;102639;-56
2023/04/12 01:34:11;;;;;;;4.50;1.80;;;;;;;10.90;74.96;98099.94;5057930;27;103515;-56
2023/04/12 01:36:40;;;;;;;3.40;1.97;;;;;;;10.52;76.91;98104.06;5040232;27;103063;-57
2023/04/12 01:39:08;;;;;;;4.33;1.90;;;;;;;10.22;78.14;98107.34;5033465;27;103206;-57
2023/04/12 01:41:40;;;;;;;4.90;2.03;;;;;;;10.21;78.78;98095.13;5033259;27;102764;-56
2023/04/12 01:44:12;;;;;;;4.13;1.90;;;;;;;10.20;78.95;98088.16;5052883;27;102671;-56
2023/04/12 01:46:41;;;;;;;3.90;2.20;;;;;;;10.18;79.78;98092.72;5055846;27;103369;-57
2023/04/12 01:49:11;;;;;;;3.67;2.00;;;;;;;10.07;80.33;98087.44;5029048;27;103068;-57
2023/04/12 01:51:49;;;;;;;2.43;1.77;;;;;;;10.03;80.73;98076.28;5035518;27;103134;-57
2023/04/12 01:54:21;;;;;;;3.23;1.73;;;;;;;10.27;79.91;98078.81;5034447;27;102707;-57
2023/04/12 01:56:56;;;;;;;3.10;1.70;;;;;;;10.33;80.78;98075.66;5040655;27;103344;-56
2023/04/12 01:59:32;;;;;;;4.07;2.07;;;;;;;10.16;80.78;98060.34;5024911;27;103338;-56
2023/04/12 02:02:02;;;;;;;4.33;1.80;;;;;;;9.99;82.92;98060.81;5040520;27;102723;-56
2023/04/12 02:04:33;;;;;;;5.73;2.10;;;;;;;9.98;83.18;98061.78;5044059;27;102712;-57
2023/04/12 02:07:01;;;;;;;3.50;1.70;;;;;;;10.04;83.13;98053.38;5042728;27;104132;-57
2023/04/12 02:09:30;;;;;;;3.33;1.87;;;;;;;10.03;83.69;98043.78;5042855;27;103821;-56
2023/04/12 02:11:58;;;;;;;3.03;2.30;;;;;;;10.06;84.22;98043.53;5028233;27;102750;-57
2023/04/12 02:14:30;;;;;;;6.43;2.10;;;;;;;10.04;84.27;98034.91;5028047;27;104475;-56
2023/04/12 02:16:58;;;;;;;4.43;1.93;;;;;;;10.05;84.86;98031.31;5028832;27;103403;-56
2023/04/12 02:19:27;;;;;;;3.93;2.30;;;;;;;10.14;83.41;98030.56;5029102;27;103505;-56
2023/04/12 02:21:55;;;;;;;2.40;1.80;;;;;;;10.15;84.17;98019.06;5028663;27;102912;-56
2023/04/12 02:24:23;;;;;;;3.47;1.70;;;;;;;9.95;85.42;98014.53;5026393;27;103549;-56
2023/04/12 02:26:51;;;;;;;6.43;2.20;;;;;;;10.09;84.81;98011.59;5026576;27;103234;-57
2023/04/12 02:29:19;;;;;;;4.13;1.70;;;;;;;10.17;83.78;98003.94;5029405;27;103279;-56
2023/04/12 02:31:50;;;;;;;4.10;2.10;;;;;;;10.02;85.38;97997.25;5029706;27;104002;-56
2023/04/12 02:34:18;;;;;;;3.27;2.00;;;;;;;9.86;86.29;98001.13;5047945;27;103231;-56
2023/04/12 02:36:51;;;;;;;4.73;1.63;;;;;;;9.94;86.70;97997.84;5031275;27;103461;-56
2023/04/12 02:39:20;;;;;;;3.90;1.83;;;;;;;10.03;85.16;97997.13;5031618;27;102941;-56
2023/04/12 02:41:50;;;;;;;3.13;1.60;;;;;;;9.97;86.33;97986.19;5029889;27;102711;-57
2023/04/12 02:44:18;;;;;;;3.57;1.83;;;;;;;10.05;86.61;97978.53;5029324;27;102854;-57
2023/04/12 02:47:01;;;;;;;2.50;1.77;;;;;;;10.10;85.52;97986.91;5040797;27;103290;-57
2023/04/12 02:49:30;;;;;;;5.40;1.97;;;;;;;10.06;85.87;97980.19;5023602;27;103576;-56
2023/04/12 02:52:01;;;;;;;2.40;1.60;;;;;;;10.10;85.70;97971.06;5021381;27;102994;-57
2023/04/12 02:54:37;;;;;;;4.23;2.33;;;;;;;10.01;87.34;97969.19;5023326;27;104497;-56
2023/04/12 02:57:07;;;;;;;5.00;2.60;;;;;;;9.99;87.31;97956.13;5024007;27;104419;-57
2023/04/12 02:59:42;;;;;;;5.73;2.10;;;;;;;9.80;89.82;97961.19;5041778;27;103935;-57
2023/04/12 03:02:17;;;;;;;6.17;2.13;;;;;;;9.85;89.22;97951.13;5028989;27;102726;-57
2023/04/12 03:04:49;;;;;;;6.10;2.43;;;;;;;9.74;90.10;97961.72;5034679;27;102750;-56
2023/04/12 03:07:21;;;;;;;4.93;2.37;;;;;;;9.94;89.32;97944.28;5029316;27;103184;-57
2023/04/12 03:09:54;;;;;;;6.50;2.13;;;;;;;9.91;89.41;97940.91;5032603;27;104120;-56
2023/04/12 03:12:24;;;;;;;6.23;2.53;;;;;;;9.48;92.19;97934.78;5036252;27;103056;-57
2023/04/12 03:15:05;;;;;;;4.93;2.40;;;;;;;9.67;90.51;97926.22;5029735;27;103139;-56
2023/04/12 03:17:35;;;;;;;6.10;2.47;;;;;;;9.57;91.72;97920.03;5026446;27;104092;-57
2023/04/12 03:20:06;;;;;;;5.67;2.50;;;;;;;9.54;90.84;97921.09;5047545;27;103256;-57
2023/04/12 03:22:35;;;;;;;5.83;2.57;;;;;;;9.27;93.02;97910.09;5046598;27;102812;-56
2023/04/12 03:25:07;;;;;;;4.80;2.60;;;;;;;9.57;91.39;97907.66;5047381;27;102733;-57
2023/04/12 03:27:37;;;;;;;6.13;3.00;;;;;;;9.45;92.13;97898.09;5034741;27;103259;-57
2023/04/12 03:30:06;;;;;;;3.70;2.53;;;;;;;9.48;91.51;97895.22;5046156;27;103386;-56
2023/04/12 03:32:39;;;;;;;5.73;3.47;;;;;;;9.52;91.09;97898.44;5044559;27;103091;-57
2023/04/12 03:35:09;;;;;;;5.37;2.93;;;;;;;9.58;90.58;97890.88;5042219;27;102707;-56
2023/04/12 03:37:43;;;;;;;5.43;2.90;;;;;;;9.64;91.11;97885.13;5028080;27;103809;-56
2023/04/12 03:40:13;;;;;;;5.90;3.00;;;;;;;9.77;90.65;97887.56;5029192;27;103198;-57
2023/04/12 03:42:47;;;;;;;5.43;3.37;;;;;;;9.82;89.42;97883.59;5026345;27;103344;-57
2023/04/12 03:45:15;;;;;;;6.17;3.07;;;;;;;9.93;89.60;97876.63;5045767;27;102707;-57
2023/04/12 03:47:51;;;;;;;5.70;3.40;;;;;;;9.99;89.19;97873.47;5022892;27;103217;-57
2023/04/12 03:50:21;;;;;;;5.80;2.63;;;;;;;10.12;88.22;97877.59;5045664;27;103335;-57
2023/04/12 03:52:55;;;;;;;5.03;3.07;;;;;;;9.87;89.65;97870.88;5032342;27;103123;-57
2023/04/12 03:55:29;;;;;;;6.73;2.73;;;;;;;9.90;89.41;97860.09;5031134;27;102793;-57
2023/04/12 03:57:59;;;;;;;4.30;3.00;;;;;;;9.87;90.76;97860.34;5025611;27;103408;-56
2023/04/12 04:00:32;;;;;;;5.87;3.03;;;;;;;10.03;89.29;97853.78;5023954;27;103264;-56
2023/04/12 04:03:09;;;;;;;6.63;3.47;;;;;;;10.07;89.50;97855.19;5020965;27;102719;-56
2023/04/12 04:05:45;;;;;;;4.63;3.17;;;;;;;9.96;90.17;97855.25;5029021;27;104133;-57
2023/04/12 04:08:15;;;;;;;6.07;3.20;;;;;;;9.98;89.36;97848.03;5026927;27;104328;-57
2023/04/12 04:10:53;;;;;;;3.47;3.00;;;;;;;9.96;89.79;97847.34;5028356;27;103203;-56
2023/04/12 04:13:27;;;;;;;5.17;3.07;;;;;;;9.99;89.91;97847.09;5031708;27;102751;-56
2023/04/12 04:16:05;;;;;;;4.50;3.17;;;;;;;9.91;89.96;97840.63;5029902;27;103008;-57
2023/04/12 04:18:35;;;;;;;5.27;3.30;;;;;;;9.95;89.92;97841.22;5049273;27;103238;-57
2023/04/12 04:21:06;;;;;;;4.70;2.63;;;;;;;9.65;92.26;97827.94;5006639;27;103289;-57
2023/04/12 04:23:37;;;;;;;4.27;3.40;;;;;;;9.91;90.59;97818.69;5029814;27;103147;-57
2023/04/12 04:26:09;;;;;;;5.03;2.87;;;;;;;9.86;90.91;97820.88;5028558;27;102707;-57
2023/04/12 04:28:43;;;;;;;5.10;3.17;;;;;;;9.72;91.41;97808.84;5028199;27;104272;-57
2023/04/12 04:31:16;;;;;;;4.33;2.70;;;;;;;9.48;93.68;97800.31;5027444;27;104118;-56
2023/04/12 04:33:49;;;;;;;5.03;2.87;;;;;;;9.62;93.13;97807.09;5026829;27;102701;-57
2023/04/12 04:36:20;;;;;;;5.80;2.77;;;;;;;9.70;93.05;97810.78;5045249;27;103048;-57
2023/04/12 04:38:53;;;;;;;5.03;3.10;;;;;;;9.74;92.55;97798.16;5029792;27;105903;-57
2023/04/12 04:41:38;;;;;;;5.57;3.20;;;;;;;9.57;93.39;97789.00;5031130;27;103276;-57
2023/04/12 04:44:09;;;;;;;4.83;3.00;;;;;;;9.59;92.95;97791.50;5049641;27;102676;-57
2023/04/12 04:46:43;;;;;;;5.90;3.23;;;;;;;9.54;94.13;97794.53;5042079;27;103040;-57
2023/04/12 04:49:12;;;;;;;5.40;3.10;;;;;;;9.57;94.03;97793.44;5055519;27;103213;-57
2023/04/12 04:51:40;;;;;;;6.57;3.57;;;;;;;9.39;95.32;97785.25;5054621;27;103259;-57
2023/04/12 04:54:12;;;;;;;4.53;3.20;;;;;;;9.58;94.68;97780.13;5034816;27;102762;-57
2023/04/12 04:56:42;;;;;;;7.00;3.13;;;;;;;9.60;94.79;97777.38;5059578;27;103699;-57
2023/04/12 04:59:16;;;;;;;4.63;3.10;;;;;;;9.51;94.50;97784.25;5058680;27;103175;-57
2023/04/12 05:01:46;;;;;;;5.60;3.40;;;;;;;9.50;95.16;97787.84;5058676;27;103171;-57
2023/04/12 05:04:22;;;;;;;6.23;2.87;;;;;;;9.50;94.92;97790.47;5041653;27;103011;-57
2023/04/12 05:06:54;;;;;;;5.93;2.83;;;;;;;9.39;95.92;97779.97;5037716;27;102703;-57
2023/04/12 05:09:29;;;;;;;2.77;2.30;;;;;;;9.19;96.12;97778.97;5053167;27;104182;-56
2023/04/12 05:11:57;;;;;;;2.87;2.37;;;;;;;9.14;96.96;97775.03;5043476;27;103296;-56
2023/04/12 05:14:26;;;;;;;4.50;2.57;;;;;;;9.02;97.61;97781.28;5039117;27;102767;-57
2023/04/12 05:17:12;;;;;;;3.87;2.40;;;;;;;8.91;99.75;97779.50;5036794;27;103731;-57
2023/04/12 05:19:43;;;;;;;3.20;2.37;;;;;;;9.19;98.31;97778.97;5033641;27;103286;-57
2023/04/12 05:22:13;;;;;;;2.30;2.10;;;;;;;9.25;97.80;97769.72;5035222;27;103204;-56
2023/04/12 05:24:41;;;;;;;3.40;2.60;;;;;;;9.26;97.69;97760.84;5032863;27;103198;-57
2023/04/12 05:27:09;;;;;;;6.03;2.93;;;;;;;9.24;98.01;97762.75;5054255;27;102703;-57
2023/04/12 05:29:38;;;;;;;4.07;2.60;;;;;;;9.42;97.31;97752.50;5043791;27;105195;-57
2023/04/12 05:32:08;;;;;;;2.77;2.37;;;;;;;9.48;97.13;97758.13;5032706;27;103205;-57
2023/04/12 05:34:37;;;;;;;3.67;2.53;;;;;;;9.62;96.25;97755.19;5032454;27;102813;-57
2023/04/12 05:37:06;;;;;;;3.83;2.70;;;;;;;9.64;95.68;97741.88;5037293;27;102740;-57
2023/04/12 05:39:38;;;;;;;5.23;2.40;;;;;;;9.41;98.09;97745.56;5038578;27;103628;-57
2023/04/12 05:42:09;;;;;;;3.97;2.90;;;;;;;9.47;97.12;97730.09;5033871;27;104119;-57
2023/04/12 05:44:39;;;;;;;5.03;2.80;;;;;;;9.52;96.94;97734.97;5054639;27;102716;-57
2023/04/12 05:47:10;;;;;;;4.90;2.80;;;;;;;9.43;97.66;97733.13;5033606;27;102855;-57
2023/04/12 05:49:39;;;;;;;4.23;2.90;;;;;;;9.50;97.77;97721.06;5027128;27;104001;-57
2023/04/12 05:52:11;;;;;;;3.80;2.47;;;;;;;9.45;97.21;97716.19;5031036;27;103368;-57
2023/04/12 05:54:40;;;;;;;5.23;2.70;;;;;;;9.40;97.81;97701.72;5036704;27;102762;-57
2023/04/12 05:57:12;;;;;;;3.43;2.53;;;;;;;9.59;96.83;97713.25;5049471;27;102749;-57
2023/04/12 05:59:41;;;;;;;2.50;2.30;;;;;;;9.59;97.39;97707.97;5032283;27;104079;-57
2023/04/12 06:02:10;;;;;;;3.07;2.53;;;;;;;9.44;97.23;97703.13;5029912;27;103474;-57
2023/04/12 06:04:39;;;;;;;2.90;2.13;;;;;;;9.57;96.99;97699.34;5042379;27;102824;-58
2023/04/12 06:07:20;;;;;;;3.43;2.47;;;;;;;9.64;97.15;97689.13;5037967;27;102739;-56
2023/04/12 06:09:48;;;;;;;4.07;2.50;;;;;;;9.51;97.21;97684.06;5056947;27;103256;-57
2023/04/12 06:12:17;;;;;;;3.27;2.30;;;;;;;9.43;98.23;97681.19;5043306;27;103876;-56
2023/04/12 06:14:46;;;;;;;3.53;2.87;;;;;;;9.38;98.77;97675.47;5043843;27;102735;-57
2023/04/12 06:17:15;;;;;;;5.00;2.37;;;;;;;9.60;97.69;97670.06;5050842;27;102914;-57
2023/04/12 06:19:43;;;;;;;5.33;2.77;;;;;;;9.60;97.80;97667.44;5036131;27;103315;-57
2023/04/12 06:22:11;;;;;;;3.37;2.63;;;;;;;9.59;98.14;97675.50;5034367;27;103200;-57
2023/04/12 06:24:42;;;;;;;4.67;2.80;;;;;;;9.69;97.86;97661.41;5026316;27;103074;-58
2023/04/12 06:27:11;;;;;;;4.47;2.90;;;;;;;9.65;98.39;97649.44;5048296;27;102791;-57
2023/04/12 06:29:39;;;;;;;3.50;2.53;;;;;;;9.66;97.45;97648.47;5038306;27;103132;-57
2023/04/12 06:32:07;;;;;;;3.67;2.67;;;;;;;9.43;99.10;97639.03;5046751;27;103600;-57
2023/04/12 06:34:35;;;;;;;3.87;2.70;;;;;;;9.55;98.78;97648.53;5036938;27;102693;-57
2023/04/12 06:37:10;;;;;;;4.47;3.03;;;;;;;9.63;98.15;97635.53;5033056;27;102677;-57
2023/04/12 06:39:38;;;;;;;4.00;2.47;;;;;;;9.62;97.62;97628.63;5045123;27;103257;-57
2023/04/12 06:42:07;;;;;;;4.47;2.70;;;;;;;9.62;98.75;97625.97;5050970;27;103073;-57
2023/04/12 06:44:39;;;;;;;2.67;2.40;;;;;;;9.48;98.50;97620.19;5046358;27;103122;-58
2023/04/12 06:47:07;;;;;;;3.70;2.37;;;;;;;9.62;98.01;97617.22;5047351;27;104022;-58
2023/04/12 06:49:36;;;;;;;5.20;2.23;;;;;;;9.79;97.11;97614.81;5049646;27;103225;-57
2023/04/12 06:52:04;;;;;;;6.90;2.80;;;;;;;9.82;96.30;97601.34;5045116;27;103409;-57
2023/04/12 06:54:33;;;;;;;3.20;2.60;;;;;;;9.90;95.63;97606.81;5029640;27;102663;-57
2023/04/12 06:57:02;;;;;;;4.07;2.40;;;;;;;9.98;95.31;97608.78;5050078;27;102743;-56
2023/04/12 06:59:32;;;;;;;3.80;2.10;;;;;;;10.01;94.98;97608.53;5033366;27;103456;-56
2023/04/12 07:01:59;;;;;;;3.30;2.03;;;;;;;10.09;94.33;97605.19;5028294;27;103036;-56
2023/04/12 07:04:27;;;;;;;4.73;4.23;;;;;;;9.98;94.30;97584.19;5050972;27;102735;-56
2023/04/12 07:06:55;;;;;;;4.00;2.37;;;;;;;9.95;95.39;97576.53;5049175;27;102693;-57
2023/04/12 07:09:23;;;;;;;2.50;2.07;;;;;;;9.83;96.17;97583.72;5045762;27;103278;-56
2023/04/12 07:11:51;;;;;;;3.13;2.00;;;;;;;9.93;95.42;97586.41;5049377;27;103188;-56
2023/04/12 07:14:19;;;;;;;1.90;1.70;;;;;;;9.95;96.06;97566.00;5055343;27;103164;-56
2023/04/12 07:16:48;;;;;;;2.47;1.80;;;;;;;9.97;96.50;97570.16;5055485;27;102757;-56
2023/04/12 07:19:16;;;;;;;4.40;2.20;;;;;;;10.02;95.85;97556.59;5050568;27;103294;-58
2023/04/12 07:21:44;;;;;;;1.70;1.57;;;;;;;9.98;95.17;97571.00;5053894;27;103351;-59
2023/04/12 07:24:12;;;;;;;3.17;2.00;;;;;;;9.90;95.45;97554.06;5043740;27;102773;-58
2023/04/12 07:26:40;;;;;;;3.73;2.00;;;;;;;9.90;96.08;97548.78;5052174;27;104067;-55
2023/04/12 07:29:09;;;;;;;3.33;2.40;;;;;;;10.01;95.52;97528.53;5049279;27;103272;-56
2023/04/12 07:31:37;;;;;;;2.10;1.77;;;;;;;10.12;95.11;97536.31;5049275;27;103342;-59
2023/04/12 07:34:11;;;;;;;5.03;1.93;;;;;;;9.89;97.41;97520.72;5053456;27;103211;-58
2023/04/12 07:36:42;;;;;;;2.93;2.00;;;;;;;9.97;96.24;97535.88;5050969;27;103148;-55
2023/04/12 07:39:11;;;;;;;2.83;1.87;;;;;;;10.08;96.23;97519.91;5048857;27;103638;-56
2023/04/12 07:41:45;;;;;;;4.97;2.17;;;;;;;10.20;95.22;97495.13;5034074;27;104059;-56
2023/04/12 07:44:13;;;;;;;4.00;2.40;;;;;;;10.33;94.53;97486.94;5054077;27;102774;-57
2023/04/12 07:46:41;;;;;;;3.27;2.37;;;;;;;10.22;94.89;97487.03;5053001;27;103247;-57
2023/04/12 07:49:12;;;;;;;4.67;2.13;;;;;;;10.20;95.72;97481.09;5058772;27;103919;-57
2023/04/12 07:51:41;;;;;;;3.77;2.47;;;;;;;10.15;95.38;97467.47;5042184;27;103191;-58
2023/04/12 07:54:09;;;;;;;3.13;2.23;;;;;;;10.30;95.39;97466.09;5056734;27;102939;-57
2023/04/12 07:56:36;;;;;;;3.10;2.40;;;;;;;10.20;95.87;97460.81;5057075;27;103760;-57
2023/04/12 07:59:04;;;;;;;3.63;2.40;;;;;;;10.32;95.80;97443.03;5053896;27;103865;-56
2023/04/12 08:01:33;;;;;;;3.07;2.20;;;;;;;10.44;94.82;97452.50;5054930;27;103224;-57
2023/04/12 08:04:02;;;;;;;2.60;2.00;;;;;;;10.54;94.74;97453.31;5052823;27;102738;-57
2023/04/12 08:06:33;;;;;;;2.00;1.90;;;;;;;10.71;93.97;97444.66;5055810;27;103801;-57
2023/04/12 08:09:01;;;;;;;3.13;2.20;;;;;;;10.80;93.21;97449.09;5054754;27;103923;-56
2023/04/12 08:11:29;;;;;;;3.00;2.20;;;;;;;10.68;94.89;97450.22;5058589;27;103346;-57
2023/04/12 08:13:57;;;;;;;2.70;2.43;;;;;;;10.64;95.33;97453.31;5048084;27;102620;-57
2023/04/12 08:16:26;;;;;;;3.23;2.60;;;;;;;10.64;95.08;97435.63;5053003;27;102656;-57
2023/04/12 08:18:54;;;;;;;2.87;2.20;;;;;;;10.60;95.45;97439.53;5046596;27;103190;-57
2023/04/12 08:21:23;;;;;;;3.57;2.60;;;;;;;10.51;95.46;97447.47;5060917;27;103235;-57
2023/04/12 08:23:52;;;;;;;3.50;2.30;;;;;;;10.49;95.92;97439.69;5056812;27;102736;-57
2023/04/12 08:26:21;;;;;;;4.23;2.30;;;;;;;10.71;95.36;97430.63;5054414;27;102756;-58
2023/04/12 08:28:49;;;;;;;3.33;2.00;;;;;;;10.76;94.91;97437.13;5051975;27;103143;-57
2023/04/12 08:31:17;;;;;;;3.77;2.10;;;;;;;10.87;94.51;97433.50;5043121;27;103198;-57
2023/04/12 08:33:46;;;;;;;3.87;2.23;;;;;;;10.93;94.32;97430.28;5036402;27;102689;-57
2023/04/12 08:36:14;;;;;;;3.27;1.90;;;;;;;10.94;94.37;97424.88;5063467;27;102719;-57
2023/04/12 08:38:42;;;;;;;4.80;2.37;;;;;;;10.90;94.48;97431.41;5042563;27;102864;-57
2023/04/12 08:41:14;;;;;;;3.03;2.30;;;;;;;10.93;94.38;97436.41;5050528;27;103222;-58
2023/04/12 08:43:44;;;;;;;5.10;2.40;;;;;;;10.97;93.99;97439.59;5055700;27;102673;-57
2023/04/12 08:46:15;;;;;;;2.77;2.13;;;;;;;11.23;92.95;97435.31;5058937;27;103849;-57
2023/04/12 08:48:45;;;;;;;2.50;2.30;;;;;;;11.20;93.96;97434.81;5051904;27;103304;-57
2023/04/12 08:51:15;;;;;;;4.43;2.20;;;;;;;11.10;93.53;97434.00;5060675;27;103471;-58
2023/04/12 08:53:43;;;;;;;2.60;2.03;;;;;;;11.49;92.04;97424.91;5033426;27;103223;-58
2023/04/12 08:56:16;;;;;;;4.67;2.30;;;;;;;11.48;92.33;97413.50;5061579;27;102708;-58
2023/04/12 08:58:47;;;;;;;5.37;2.57;;;;;;;11.57;92.35;97423.19;5050030;27;103296;-57
2023/04/12 09:01:17;;;;;;;4.87;2.20;;;;;;;11.65;91.69;97419.81;5057003;27;103310;-57
2023/04/12 09:03:46;;;;;;;4.07;1.73;;;;;;;11.70;91.08;97420.25;5034278;27;102749;-57
2023/04/12 09:06:15;;;;;;;3.80;1.90;;;;;;;11.77;91.05;97410.72;5037039;27;102887;-57
2023/04/12 09:08:53;;;;;;;2.93;2.27;;;;;;;11.82;91.73;97405.81;5057401;27;103224;-57
2023/04/12 09:11:25;;;;;;;2.87;1.80;;;;;;;11.90;90.72;97403.25;5053354;27;103192;-66
2023/04/12 09:13:54;;;;;;;2.00;1.83;;;;;;;11.83;89.35;97402.19;5058441;27;102559;-66
2023/04/12 09:16:37;;;;;;;3.50;2.00;;;;;;;11.72;91.02;97388.34;5057662;27;102700;-66
2023/04/12 09:19:05;;;;;;;2.00;1.80;;;;;;;11.82;89.99;97386.44;5057407;27;103220;-66
2023/04/12 09:21:34;;;;;;;2.10;1.60;;;;;;;11.67;90.51;97383.47;5054628;27;103185;-66
2023/04/12 09:24:08;;;;;;;1.60;1.50;;;;;;;11.90;89.05;97375.97;5053084;27;102647;-66
2023/04/12 09:26:40;;;;;;;1.20;1.10;;;;;;;12.17;88.57;97383.84;5057472;27;103082;-66
2023/04/12 09:29:22;;;;;;;2.53;1.50;;;;;;;12.28;87.27;97378.31;5058684;27;103318;-67
2023/04/12 09:32:01;;;;;;;2.70;1.50;;;;;;;12.26;86.78;97371.50;5036669;27;103200;-66
2023/04/12 09:34:33;;;;;;;4.83;1.80;;;;;;;12.31;86.94;97371.88;5057146;27;103310;-66
2023/04/12 09:37:12;;;;;;;1.60;1.50;;;;;;;12.24;87.76;97368.97;5055941;27;102673;-66
2023/04/12 09:39:41;;;;;;;3.40;2.00;;;;;;;12.31;86.47;97377.16;5054779;27;103301;-66
2023/04/12 09:42:13;;;;;;;1.73;1.40;;;;;;;12.51;86.59;97370.69;5060642;27;103169;-66
2023/04/12 09:45:00;;;;;;;2.30;1.57;;;;;;;12.53;86.34;97372.19;5054383;27;102611;-66
2023/04/12 09:47:39;;;;;;;2.27;1.60;;;;;;;12.63;85.60;97370.28;5055394;27;103156;-66
2023/04/12 09:50:21;;;;;;;4.40;1.87;;;;;;;12.45;87.46;97366.00;5050947;27;104289;-66
2023/04/12 09:52:58;;;;;;;3.43;1.70;;;;;;;12.54;85.61;97365.94;5035525;27;103103;-65
2023/04/12 09:55:30;;;;;;;4.17;1.73;;;;;;;12.67;86.47;97370.81;5045590;27;102823;-65
2023/04/12 09:58:05;;;;;;;2.50;1.70;;;;;;;12.82;86.07;97363.97;5042126;27;103864;-65
2023/04/12 10:00:36;;;;;;;2.33;1.80;;;;;;;12.72;85.01;97363.22;5023152;27;103067;-65
2023/04/12 10:03:06;;;;;;;1.67;1.40;;;;;;;12.75;85.33;97357.59;5031043;27;103057;-65
2023/04/12 10:05:40;;;;;;;3.53;1.50;;;;;;;12.96;84.37;97350.13;5031478;27;103132;-65
2023/04/12 10:08:12;;;;;;;5.40;1.83;;;;;;;13.03;84.78;97345.00;5028101;27;103146;-66
2023/04/12 10:10:41;;;;;;;2.63;1.70;;;;;;;13.01;82.78;97347.81;5049965;27;103298;-65
2023/04/12 10:13:12;;;;;;;2.87;1.50;;;;;;;13.05;82.36;97351.00;5052319;27;103011;-65
2023/04/12 10:15:41;;;;;;;2.60;1.40;;;;;;;13.03;82.49;97345.84;5036762;27;103069;-65
2023/04/12 10:18:36;;;;;;;2.13;1.40;;;;;;;13.22;81.84;97336.84;5011095;27;103044;-68
2023/04/12 10:21:05;;;;;;;2.90;1.47;;;;;;;13.42;82.27;97340.06;5042108;27;103254;-67
2023/04/12 10:23:33;;;;;;;4.40;1.90;;;;;;;13.31;81.40;97338.53;5043716;27;103661;-67
2023/04/12 10:26:04;;;;;;;2.00;1.27;;;;;;;13.65;80.51;97335.81;5054173;27;102659;-66
2023/04/12 10:28:35;;;;;;;1.97;1.30;;;;;;;13.74;81.13;97334.84;5025020;27;102762;-67
2023/04/12 10:31:28;;;;;;;3.07;1.60;;;;;;;13.59;80.52;97341.75;5050298;27;103437;-67
2023/04/12 10:33:56;;;;;;;4.57;1.67;;;;;;;13.40;80.22;97339.38;5049626;27;103223;-66
2023/04/12 10:36:52;;;;;;;4.03;1.70;;;;;;;13.62;80.95;97352.03;5048192;27;103737;-67
2023/04/12 10:39:37;;;;;;;3.40;1.57;;;;;;;13.71;80.01;97335.16;5025279;27;102734;-67
2023/04/12 10:42:25;;;;;;;2.47;1.60;;;;;;;13.62;80.35;97330.81;5040995;27;103710;-67
2023/04/12 10:44:56;;;;;;;2.77;1.50;;;;;;;13.64;79.32;97331.50;5039048;27;103236;-67
2023/04/12 10:48:00;;;;;;;2.57;1.50;;;;;;;14.06;79.23;97334.06;5052432;27;102622;-67
2023/04/12 10:50:31;;;;;;;3.50;1.40;;;;;;;13.89;77.92;97327.91;5024103;27;103682;-67
2023/04/12 10:53:34;;;;;;;2.13;1.30;;;;;;;13.95;78.79;97322.75;5050361;27;103382;-65
2023/04/12 10:56:42;;;;;;;2.70;1.37;;;;;;;13.89;77.66;97306.66;4968576;28;103161;-67
2023/04/12 10:59:23;;;;;;;2.27;1.40;;;;;;;14.04;78.45;97305.00;4969456;28;102850;-67
2023/04/12 11:02:11;;;;;;;3.83;1.47;;;;;;;14.03;77.60;97313.97;5040562;27;103637;-67
2023/04/12 11:05:04;;;;;;;2.07;1.40;;;;;;;14.50;78.83;97306.16;5017289;27;103484;-67
2023/04/12 11:07:53;;;;;;;2.90;1.50;;;;;;;14.30;75.50;97295.03;5047463;27;103184;-68
2023/04/12 11:10:49;;;;;;;2.17;1.30;;;;;;;14.48;76.07;97285.06;5048659;27;102639;-67
2023/04/12 11:13:34;;;;;;;1.97;1.20;;;;;;;14.83;75.03;97280.34;5027379;27;104183;-67
2023/04/12 11:16:03;;;;;;;3.90;1.17;;;;;;;14.67;74.31;97291.03;5045999;27;103306;-68
2023/04/12 11:18:35;;;;;;;1.73;1.13;;;;;;;14.41;73.30;97276.13;5044613;27;103234;-67
2023/04/12 11:21:04;;;;;;;2.33;1.10;;;;;;;14.31;74.34;97286.09;5055683;27;102620;-67
2023/04/12 11:23:35;;;;;;;2.47;1.10;;;;;;;14.54;74.26;97272.13;5048755;27;102694;-67
2023/04/12 11:26:04;;;;;;;2.60;1.10;;;;;;;14.62;73.16;97270.28;5052821;27;103292;-67
2023/04/12 11:28:32;;;;;;;2.43;1.27;;;;;;;14.68;74.02;97272.22;5037384;27;103236;-67
2023/04/12 11:31:06;;;;;;;1.60;0.90;;;;;;;14.88;72.08;97267.34;5041996;27;102721;-67
2023/04/12 11:33:37;;;;;;;2.63;1.23;;;;;;;15.00;71.98;97265.97;5045236;27;102704;-67
2023/04/12 11:36:07;;;;;;;2.17;1.37;;;;;;;15.00;72.91;97265.97;5046293;27;103258;-67
2023/04/12 11:38:36;;;;;;;3.00;1.20;;;;;;;14.80;71.35;97267.38;5046561;27;103277;-67
2023/04/12 11:41:06;;;;;;;1.93;1.10;;;;;;;14.70;71.55;97248.16;5049341;27;103384;-67
2023/04/12 11:43:37;;;;;;;1.87;1.07;;;;;;;15.37;72.37;97258.16;5049678;27;102938;-66
2023/04/12 11:46:08;;;;;;;2.57;1.07;;;;;;;15.30;70.07;97251.06;5027637;27;103355;-65
2023/04/12 11:52:02;;;;;;;1.73;1.00;;;;;;;15.34;70.45;97253.19;5012638;27;102922;-65
2023/04/12 11:54:30;;;;;;;2.60;1.00;;;;;;;15.02;69.28;97258.66;5045971;27;102699;-66